Pays
Station

 

Conditions  météo  pour  San Carlos Airport  -  Etats-Unis    Etats-Unis

  
13 °C
    
 
 

METAR pour San Carlos Airport :

KSQL 100047Z 36004KT 10SM BKN018 13/10 A3019 RMK LAST

 

Voici le bulletin pour San Carlos Airport - Etats-Unis.
 
Le bulletin a été fait il y a 3 heures et 47 minutes, à 00:47 UTC .
Le vent soufflait à la vitesse de 2.1 mètres par seconde de Nord (360°).
 
La température était de 13 °C, avec un point de rosée à 10 °C.
La pression atmosphérique était de 1022 hPa.
L'humidité relative était de 82.0%.
 
Il y avait 5 à 7/8ème de nébulosité à une hauteur de 549 mètres.
 
La visibilité globale était de 16.1 kilomètres.
 

 
 
 

Pays :   A   B   C   D   E   F   G   H   I   J   K   L   M   N   O   P   Q   R   S   T   U   V   W   Y   Z

 

Partenaires :  Info Météo avec Met'info
Météo Marine avec MeteoMarine.net
Infos Site  |  Infos Légales  |  Crédits  |  Confidentialité
Contactez-nous  |  Ajouter aux favoris
© 2013-2019 METAR - Tous droits réservés